Time;durP1;ratioP1;P1;durP2;ratioP2;P2;SDS_P1;SDS_P2;PMS_P1;PMS_P2;Temp;Humidity;BMP_temperature;BMP_pressure;BME280_temperature;BME280_humidity;BME280_pressure;Samples;Min_cycle;Max_cycle;Signal;HPM_P1;HPM_P2
2021/11/29 00:00:56;;;;;;;1.10;0.20;;;;;;;;;;5023932;28;20037;-75
2021/11/29 00:03:23;;;;;;;0.60;0.17;;;;;;;;;;5024981;28;20025;-74
2021/11/29 00:05:49;;;;;;;1.60;0.30;;;;;;;;;;5024916;28;20030;-75
2021/11/29 00:08:15;;;;;;;0.93;0.70;;;;;;;;;;5026298;28;20037;-75
2021/11/29 00:10:41;;;;;;;2.05;0.50;;;;;;;;;;5026798;28;20029;-75
2021/11/29 00:13:08;;;;;;;1.27;0.25;;;;;;;;;;5027468;28;20025;-75
2021/11/29 00:15:34;;;;;;;2.20;0.30;;;;;;;;;;5025260;28;20033;-75
2021/11/29 00:18:02;;;;;;;0.80;0.10;;;;;;;;;;5029489;28;20501;-73
2021/11/29 00:20:28;;;;;;;1.73;0.30;;;;;;;;;;5027730;28;20041;-74
2021/11/29 00:22:54;;;;;;;3.03;0.77;;;;;;;;;;5025325;28;20030;-73
2021/11/29 00:25:20;;;;;;;0.50;0.50;;;;;;;;;;5026661;28;20036;-70
2021/11/29 00:27:47;;;;;;;0.28;0.10;;;;;;;;;;5029300;28;20112;-76
2021/11/29 00:30:15;;;;;;;0.70;0.25;;;;;;;;;;5030033;28;20030;-75
2021/11/29 00:32:42;;;;;;;0.80;0.20;;;;;;;;;;5032008;28;20397;-73
2021/11/29 00:35:08;;;;;;;1.75;0.20;;;;;;;;;;5026259;28;20034;-72
2021/11/29 00:37:35;;;;;;;1.98;0.40;;;;;;;;;;5030576;28;20624;-73
2021/11/29 00:40:01;;;;;;;0.52;0.30;;;;;;;;;;5030358;28;20099;-70
2021/11/29 00:42:27;;;;;;;0.10;0.10;;;;;;;;;;5027230;28;20033;-73
2021/11/29 00:44:53;;;;;;;0.65;0.03;;;;;;;;;;5030302;28;20039;-75
2021/11/29 00:47:20;;;;;;;1.83;0.40;;;;;;;;;;5031007;28;20025;-75
2021/11/29 00:49:46;;;;;;;0.45;0.10;;;;;;;;;;5026943;28;20044;-75
2021/11/29 00:52:12;;;;;;;0.28;0.10;;;;;;;;;;5025309;28;20373;-75
2021/11/29 00:54:38;;;;;;;0.08;0.00;;;;;;;;;;5026451;28;20038;-74
2021/11/29 00:57:05;;;;;;;0.35;0.10;;;;;;;;;;5030212;28;20065;-75
2021/11/29 00:59:31;;;;;;;0.55;0.10;;;;;;;;;;5026199;28;20093;-71
2021/11/29 01:01:57;;;;;;;2.28;0.10;;;;;;;;;;5030305;28;20017;-75
2021/11/29 01:04:23;;;;;;;1.63;0.30;;;;;;;;;;5035009;28;20030;-73
2021/11/29 01:06:49;;;;;;;1.95;0.20;;;;;;;;;;5025898;28;20028;-74
2021/11/29 01:09:15;;;;;;;1.98;0.15;;;;;;;;;;5025996;28;20034;-76
2021/11/29 01:11:42;;;;;;;1.17;0.30;;;;;;;;;;5025743;28;20028;-75
2021/11/29 01:14:08;;;;;;;0.95;0.40;;;;;;;;;;5026620;28;20033;-75
2021/11/29 01:16:34;;;;;;;3.72;0.40;;;;;;;;;;5023910;28;20021;-75
2021/11/29 01:19:00;;;;;;;2.42;0.30;;;;;;;;;;5029966;28;20567;-73
2021/11/29 01:21:26;;;;;;;3.70;0.50;;;;;;;;;;5031097;28;20029;-76
2021/11/29 01:23:53;;;;;;;4.65;1.55;;;;;;;;;;5029733;28;20033;-73
2021/11/29 01:26:19;;;;;;;5.18;0.57;;;;;;;;;;5026432;28;20469;-73
2021/11/29 01:28:45;;;;;;;1.90;0.50;;;;;;;;;;5025200;28;20179;-74
2021/11/29 01:31:11;;;;;;;1.27;0.35;;;;;;;;;;5026636;28;20071;-74
2021/11/29 01:33:37;;;;;;;2.13;0.40;;;;;;;;;;5028366;28;20021;-75
2021/11/29 01:36:04;;;;;;;3.58;0.60;;;;;;;;;;5030349;28;20489;-75
2021/11/29 01:38:30;;;;;;;1.70;0.47;;;;;;;;;;5025281;28;20091;-73
2021/11/29 01:40:57;;;;;;;0.82;0.43;;;;;;;;;;5025331;28;20470;-73
2021/11/29 01:43:23;;;;;;;1.20;0.43;;;;;;;;;;5026538;28;20021;-73
2021/11/29 01:45:54;;;;;;;1.70;0.28;;;;;;;;;;5030584;28;20033;-74
2021/11/29 01:48:21;;;;;;;1.85;0.15;;;;;;;;;;5030189;28;20141;-74
2021/11/29 01:50:48;;;;;;;1.35;0.40;;;;;;;;;;5028189;28;20748;-74
2021/11/29 01:53:15;;;;;;;1.38;0.30;;;;;;;;;;5026279;28;20017;-73
2021/11/29 01:55:42;;;;;;;0.70;0.28;;;;;;;;;;5025262;28;20032;-74
2021/11/29 01:58:09;;;;;;;0.68;0.20;;;;;;;;;;5026069;28;20079;-73
2021/11/29 02:00:37;;;;;;;1.23;0.30;;;;;;;;;;5028983;28;20473;-74
2021/11/29 02:03:03;;;;;;;0.10;0.10;;;;;;;;;;5027371;28;20036;-73
2021/11/29 02:05:30;;;;;;;0.93;0.30;;;;;;;;;;5024553;28;20040;-74
2021/11/29 02:07:57;;;;;;;1.67;0.40;;;;;;;;;;5028120;28;20137;-74
2021/11/29 02:10:25;;;;;;;1.13;0.50;;;;;;;;;;5030157;28;20531;-74
2021/11/29 02:12:51;;;;;;;0.52;0.20;;;;;;;;;;5029998;28;20440;-72
2021/11/29 02:15:18;;;;;;;1.10;0.40;;;;;;;;;;5030259;28;20048;-74
2021/11/29 02:17:44;;;;;;;0.30;0.20;;;;;;;;;;5033372;28;20069;-74
2021/11/29 02:20:11;;;;;;;0.55;0.28;;;;;;;;;;5028505;28;20041;-73
2021/11/29 02:22:39;;;;;;;1.73;0.40;;;;;;;;;;5029335;28;20013;-74
2021/11/29 02:25:05;;;;;;;2.25;0.30;;;;;;;;;;5029756;28;20025;-73
2021/11/29 02:27:32;;;;;;;2.45;0.22;;;;;;;;;;5027860;28;20048;-73
2021/11/29 02:29:58;;;;;;;3.47;0.25;;;;;;;;;;5031040;28;20465;-74
2021/11/29 02:32:24;;;;;;;0.85;0.28;;;;;;;;;;5027954;28;20029;-73
2021/11/29 02:34:51;;;;;;;1.38;0.20;;;;;;;;;;5027602;28;20029;-74
2021/11/29 02:37:17;;;;;;;1.55;0.13;;;;;;;;;;5022708;28;20033;-73
2021/11/29 02:39:43;;;;;;;0.88;0.20;;;;;;;;;;5031951;28;20084;-73
2021/11/29 02:42:11;;;;;;;1.40;0.40;;;;;;;;;;5025696;28;20116;-73
2021/11/29 02:44:38;;;;;;;3.03;0.43;;;;;;;;;;5023481;28;20030;-73
2021/11/29 02:47:05;;;;;;;3.35;0.20;;;;;;;;;;5024631;28;20477;-73
2021/11/29 02:49:31;;;;;;;1.13;0.32;;;;;;;;;;5025744;28;20083;-73
2021/11/29 02:51:59;;;;;;;3.47;0.43;;;;;;;;;;5024824;28;20037;-73
2021/11/29 02:54:30;;;;;;;2.63;0.32;;;;;;;;;;5023433;28;20105;-74
2021/11/29 02:56:57;;;;;;;2.60;0.30;;;;;;;;;;5025327;28;20498;-75
2021/11/29 02:59:25;;;;;;;1.70;0.40;;;;;;;;;;5034979;28;20049;-73
2021/11/29 03:01:53;;;;;;;3.35;0.60;;;;;;;;;;5025668;28;20107;-73
2021/11/29 03:04:20;;;;;;;2.65;0.75;;;;;;;;;;5024619;28;20037;-73
2021/11/29 03:06:46;;;;;;;3.72;0.73;;;;;;;;;;5022535;28;20374;-73
2021/11/29 03:09:13;;;;;;;3.28;0.43;;;;;;;;;;5022635;28;20418;-73
2021/11/29 03:11:39;;;;;;;2.78;0.32;;;;;;;;;;5024762;28;20063;-74
2021/11/29 03:14:06;;;;;;;3.78;0.45;;;;;;;;;;5024442;28;20088;-74
2021/11/29 03:16:33;;;;;;;1.45;0.47;;;;;;;;;;5022396;28;20034;-73
2021/11/29 03:18:59;;;;;;;1.33;0.30;;;;;;;;;;5029165;28;20045;-74
2021/11/29 03:21:26;;;;;;;1.33;0.40;;;;;;;;;;5028273;28;20034;-74
2021/11/29 03:23:53;;;;;;;3.47;0.40;;;;;;;;;;5029156;28;20048;-73
2021/11/29 03:26:20;;;;;;;2.05;0.40;;;;;;;;;;5023382;28;20124;-74
2021/11/29 03:28:53;;;;;;;4.65;0.50;;;;;;;;;;5030939;28;20112;-73
2021/11/29 03:31:19;;;;;;;3.40;0.40;;;;;;;;;;5028073;28;20057;-73
2021/11/29 03:33:46;;;;;;;3.60;0.47;;;;;;;;;;5025471;28;20028;-72
2021/11/29 03:36:12;;;;;;;1.95;0.28;;;;;;;;;;5030289;28;20026;-73
2021/11/29 03:38:39;;;;;;;0.93;0.40;;;;;;;;;;5024107;28;20025;-72
2021/11/29 03:41:06;;;;;;;2.20;0.30;;;;;;;;;;5025761;28;20676;-74
2021/11/29 03:43:32;;;;;;;1.13;0.30;;;;;;;;;;5025462;28;20025;-73
2021/11/29 03:45:59;;;;;;;2.15;0.50;;;;;;;;;;5025907;28;20112;-74
2021/11/29 03:48:25;;;;;;;3.10;0.75;;;;;;;;;;5024590;28;20032;-73
2021/11/29 03:50:52;;;;;;;5.72;0.57;;;;;;;;;;5026925;28;20025;-73
2021/11/29 03:53:18;;;;;;;1.23;0.75;;;;;;;;;;5031685;28;20473;-73
2021/11/29 03:55:44;;;;;;;2.83;0.50;;;;;;;;;;5029370;28;20100;-73
2021/11/29 03:58:11;;;;;;;1.80;0.40;;;;;;;;;;5026596;28;20049;-73
2021/11/29 04:00:37;;;;;;;1.15;0.30;;;;;;;;;;5027631;28;20036;-73
2021/11/29 04:03:04;;;;;;;2.95;0.50;;;;;;;;;;5023779;28;20061;-73
2021/11/29 04:05:30;;;;;;;3.83;0.60;;;;;;;;;;5022940;28;20109;-73
2021/11/29 04:07:56;;;;;;;0.85;0.30;;;;;;;;;;5022622;28;20050;-73
2021/11/29 04:10:22;;;;;;;1.33;0.25;;;;;;;;;;5021553;28;20033;-72
2021/11/29 04:12:49;;;;;;;3.47;0.47;;;;;;;;;;5024279;28;20106;-73
2021/11/29 04:15:15;;;;;;;0.25;0.13;;;;;;;;;;5026437;28;20025;-71
2021/11/29 04:17:41;;;;;;;0.38;0.17;;;;;;;;;;5021897;28;20073;-72
2021/11/29 04:20:09;;;;;;;0.50;0.10;;;;;;;;;;5022196;28;20041;-73
2021/11/29 04:22:36;;;;;;;1.10;0.10;;;;;;;;;;5027758;28;20428;-73
2021/11/29 04:25:03;;;;;;;0.43;0.10;;;;;;;;;;5023894;28;20044;-73
2021/11/29 04:27:30;;;;;;;0.17;0.03;;;;;;;;;;5035070;28;20500;-73
2021/11/29 04:30:02;;;;;;;1.35;0.20;;;;;;;;;;5025430;28;20124;-73
2021/11/29 04:32:28;;;;;;;1.58;0.20;;;;;;;;;;5026382;28;20059;-73
2021/11/29 04:34:55;;;;;;;0.22;0.00;;;;;;;;;;5018616;28;20049;-73
2021/11/29 04:37:22;;;;;;;1.30;0.17;;;;;;;;;;5022736;28;20034;-73
2021/11/29 04:39:48;;;;;;;0.70;0.30;;;;;;;;;;5019844;28;20049;-73
2021/11/29 04:42:14;;;;;;;0.43;0.20;;;;;;;;;;5023497;28;20036;-73
2021/11/29 04:44:40;;;;;;;0.38;0.20;;;;;;;;;;5022754;28;20079;-73
2021/11/29 04:47:07;;;;;;;1.23;0.30;;;;;;;;;;5023191;28;20028;-73
2021/11/29 04:49:33;;;;;;;1.02;0.50;;;;;;;;;;5018998;28;20029;-74
2021/11/29 04:52:00;;;;;;;2.60;0.30;;;;;;;;;;5024800;28;20033;-73
2021/11/29 04:54:26;;;;;;;1.35;0.40;;;;;;;;;;5019727;28;20084;-73
2021/11/29 04:56:52;;;;;;;0.35;0.15;;;;;;;;;;5019190;28;20030;-73
2021/11/29 04:59:18;;;;;;;2.92;0.40;;;;;;;;;;5021353;28;20037;-74
2021/11/29 05:01:44;;;;;;;5.05;1.38;;;;;;;;;;5021319;28;20025;-75
2021/11/29 05:04:11;;;;;;;1.15;0.22;;;;;;;;;;5023665;28;20033;-74
2021/11/29 05:06:38;;;;;;;2.25;0.63;;;;;;;;;;5022303;28;20038;-74
2021/11/29 05:09:09;;;;;;;0.85;0.30;;;;;;;;;;5021285;28;20079;-73
2021/11/29 05:11:35;;;;;;;0.95;0.40;;;;;;;;;;5018436;28;20104;-74
2021/11/29 05:14:02;;;;;;;1.55;0.45;;;;;;;;;;5019134;28;20033;-72
2021/11/29 05:16:28;;;;;;;2.03;0.43;;;;;;;;;;5020461;28;20029;-73
2021/11/29 05:18:54;;;;;;;4.43;0.95;;;;;;;;;;5021238;28;20128;-74
2021/11/29 05:21:21;;;;;;;2.42;0.50;;;;;;;;;;5021528;28;20048;-73
2021/11/29 05:23:48;;;;;;;5.40;0.50;;;;;;;;;;5021959;28;20141;-74
2021/11/29 05:26:17;;;;;;;5.22;1.00;;;;;;;;;;5021372;28;20548;-74
2021/11/29 05:28:43;;;;;;;7.30;0.90;;;;;;;;;;5021203;28;20029;-72
2021/11/29 05:31:10;;;;;;;4.90;0.82;;;;;;;;;;5021151;28;20628;-74
2021/11/29 05:33:36;;;;;;;3.38;0.70;;;;;;;;;;5021093;28;20046;-74
2021/11/29 05:36:03;;;;;;;7.00;0.98;;;;;;;;;;5019044;28;20047;-73
2021/11/29 05:38:29;;;;;;;5.10;0.70;;;;;;;;;;5022589;28;20497;-74
2021/11/29 05:40:56;;;;;;;5.00;0.80;;;;;;;;;;5026872;28;20688;-73
2021/11/29 05:43:22;;;;;;;3.17;0.70;;;;;;;;;;5023823;28;20119;-73
2021/11/29 05:45:48;;;;;;;2.25;0.75;;;;;;;;;;5029042;28;20029;-74
2021/11/29 05:48:15;;;;;;;1.77;0.57;;;;;;;;;;5022981;28;20022;-74
2021/11/29 05:50:41;;;;;;;1.67;0.40;;;;;;;;;;5022837;28;20030;-73
2021/11/29 05:53:07;;;;;;;0.47;0.10;;;;;;;;;;5024424;28;20121;-74
2021/11/29 05:55:34;;;;;;;0.40;0.20;;;;;;;;;;5022491;28;20033;-74
2021/11/29 05:58:00;;;;;;;0.57;0.10;;;;;;;;;;5027364;28;20034;-74
2021/11/29 06:00:26;;;;;;;1.50;0.60;;;;;;;;;;5022716;28;20548;-74
2021/11/29 06:02:52;;;;;;;1.38;0.40;;;;;;;;;;5023471;28;20039;-74
2021/11/29 06:05:18;;;;;;;0.17;0.10;;;;;;;;;;5021235;28;20087;-73
2021/11/29 06:07:57;;;;;;;1.08;0.10;;;;;;;;;;5023096;28;20129;-72
2021/11/29 06:10:23;;;;;;;1.63;0.30;;;;;;;;;;5023052;28;20061;-74
2021/11/29 06:12:49;;;;;;;2.85;0.80;;;;;;;;;;5022818;28;20523;-74
2021/11/29 06:15:16;;;;;;;3.97;0.40;;;;;;;;;;5021509;28;20033;-74
2021/11/29 06:17:42;;;;;;;1.33;0.65;;;;;;;;;;5021269;28;20022;-73
2021/11/29 06:20:09;;;;;;;1.80;0.43;;;;;;;;;;5025737;28;20056;-74
2021/11/29 06:22:35;;;;;;;2.42;0.70;;;;;;;;;;5023016;28;20025;-74
2021/11/29 06:25:01;;;;;;;2.40;0.40;;;;;;;;;;5022354;28;20037;-73
2021/11/29 06:27:28;;;;;;;2.88;0.40;;;;;;;;;;5029325;28;20524;-74
2021/11/29 06:29:54;;;;;;;0.98;0.40;;;;;;;;;;5024147;28;20036;-74
2021/11/29 06:32:20;;;;;;;3.15;0.80;;;;;;;;;;5020714;28;20041;-75
2021/11/29 06:34:46;;;;;;;2.97;0.90;;;;;;;;;;5025017;28;20112;-75
2021/11/29 06:37:13;;;;;;;2.35;0.60;;;;;;;;;;5031004;28;20025;-75
2021/11/29 06:39:39;;;;;;;4.00;0.65;;;;;;;;;;5020741;28;20064;-73
2021/11/29 06:42:06;;;;;;;4.82;1.40;;;;;;;;;;5024077;28;20029;-72
2021/11/29 06:44:33;;;;;;;5.05;1.00;;;;;;;;;;5022818;28;20109;-73
2021/11/29 06:46:59;;;;;;;2.33;0.60;;;;;;;;;;5024092;28;20026;-73
2021/11/29 06:49:26;;;;;;;4.05;0.80;;;;;;;;;;5022244;28;20739;-72
2021/11/29 06:51:52;;;;;;;2.75;0.80;;;;;;;;;;5023970;28;20046;-73
2021/11/29 06:54:20;;;;;;;3.35;0.98;;;;;;;;;;5021840;28;20072;-73
2021/11/29 06:56:47;;;;;;;4.03;0.80;;;;;;;;;;5024123;28;20124;-74
2021/11/29 06:59:13;;;;;;;4.25;0.82;;;;;;;;;;5023696;28;20485;-74
2021/11/29 07:01:39;;;;;;;3.60;0.63;;;;;;;;;;5024990;28;20036;-74
2021/11/29 07:04:05;;;;;;;1.55;0.40;;;;;;;;;;5024457;28;20029;-74
2021/11/29 07:06:32;;;;;;;0.50;0.13;;;;;;;;;;5022164;28;20037;-72
2021/11/29 07:08:58;;;;;;;1.85;0.40;;;;;;;;;;5023941;28;20038;-73
2021/11/29 07:11:25;;;;;;;0.77;0.38;;;;;;;;;;5023963;28;20033;-72
2021/11/29 07:13:51;;;;;;;0.90;0.20;;;;;;;;;;5025745;28;20033;-74
2021/11/29 07:16:17;;;;;;;0.82;0.30;;;;;;;;;;5024640;28;20056;-75
2021/11/29 07:18:43;;;;;;;0.40;0.20;;;;;;;;;;5023522;28;20516;-72
2021/11/29 07:21:11;;;;;;;2.20;0.40;;;;;;;;;;5024930;28;20516;-76
2021/11/29 07:23:37;;;;;;;0.35;0.20;;;;;;;;;;5024350;28;20028;-74
2021/11/29 07:26:03;;;;;;;4.07;0.40;;;;;;;;;;5030226;28;20481;-73
2021/11/29 07:28:29;;;;;;;3.55;0.65;;;;;;;;;;5024340;28;20086;-74
2021/11/29 07:30:55;;;;;;;2.72;0.50;;;;;;;;;;5023073;28;20029;-75
2021/11/29 07:33:22;;;;;;;2.13;0.63;;;;;;;;;;5026607;28;20701;-73
2021/11/29 07:35:48;;;;;;;1.75;0.32;;;;;;;;;;5022254;28;20079;-75
2021/11/29 07:38:14;;;;;;;2.08;0.75;;;;;;;;;;5023539;28;20108;-75
2021/11/29 07:40:40;;;;;;;4.28;1.20;;;;;;;;;;5020659;28;20033;-73
2021/11/29 07:43:08;;;;;;;3.22;0.70;;;;;;;;;;5028972;28;20032;-73
2021/11/29 07:45:35;;;;;;;1.98;0.70;;;;;;;;;;5023160;28;20087;-73
2021/11/29 07:48:01;;;;;;;6.18;0.85;;;;;;;;;;5021822;28;20112;-73
2021/11/29 07:50:28;;;;;;;4.03;1.00;;;;;;;;;;5022870;28;20032;-73
2021/11/29 07:52:54;;;;;;;2.25;0.65;;;;;;;;;;5024479;28;20029;-73
2021/11/29 07:55:25;;;;;;;3.10;0.82;;;;;;;;;;5023202;28;20485;-73
2021/11/29 07:57:52;;;;;;;3.95;0.85;;;;;;;;;;5023373;28;20861;-73
2021/11/29 08:00:21;;;;;;;3.65;0.85;;;;;;;;;;5027748;28;20703;-73
2021/11/29 08:02:48;;;;;;;4.63;1.02;;;;;;;;;;5022983;28;20025;-73
2021/11/29 08:05:15;;;;;;;2.95;0.60;;;;;;;;;;5025403;28;20030;-72
2021/11/29 08:07:41;;;;;;;3.97;0.93;;;;;;;;;;5023343;28;20626;-76
2021/11/29 08:10:07;;;;;;;1.48;0.65;;;;;;;;;;5021645;28;20047;-72
2021/11/29 08:12:33;;;;;;;3.63;0.60;;;;;;;;;;5027940;28;20029;-74
2021/11/29 08:14:59;;;;;;;3.33;0.88;;;;;;;;;;5021137;28;20033;-73
2021/11/29 08:17:25;;;;;;;1.80;0.63;;;;;;;;;;5022540;28;20021;-72
2021/11/29 08:19:52;;;;;;;2.58;0.60;;;;;;;;;;5022618;28;20156;-74
2021/11/29 08:22:18;;;;;;;1.63;0.55;;;;;;;;;;5026279;28;20029;-73
2021/11/29 08:24:44;;;;;;;2.92;0.75;;;;;;;;;;5022926;28;20022;-74
2021/11/29 08:27:11;;;;;;;3.97;0.70;;;;;;;;;;5025675;28;20021;-75
2021/11/29 08:29:37;;;;;;;5.03;0.75;;;;;;;;;;5031508;28;20486;-77
2021/11/29 08:32:04;;;;;;;3.45;0.82;;;;;;;;;;5027846;28;20029;-76
2021/11/29 08:34:30;;;;;;;2.50;0.65;;;;;;;;;;5021914;28;20507;-76
2021/11/29 08:36:56;;;;;;;3.88;0.80;;;;;;;;;;5021049;28;20519;-75
2021/11/29 08:39:22;;;;;;;3.65;0.80;;;;;;;;;;5021186;28;20033;-76
2021/11/29 08:41:48;;;;;;;6.00;1.05;;;;;;;;;;5022387;28;20040;-74
2021/11/29 08:44:14;;;;;;;4.43;1.30;;;;;;;;;;5026614;28;20032;-74
2021/11/29 08:46:48;;;;;;;3.63;0.75;;;;;;;;;;5023850;28;20528;-74
2021/11/29 08:49:14;;;;;;;3.85;1.08;;;;;;;;;;5019354;28;20436;-74
2021/11/29 08:51:40;;;;;;;3.40;1.00;;;;;;;;;;5023206;28;20060;-75
2021/11/29 08:54:07;;;;;;;11.85;1.10;;;;;;;;;;5022352;28;20027;-76
2021/11/29 08:56:33;;;;;;;4.75;1.00;;;;;;;;;;5029461;28;20029;-74
2021/11/29 08:59:00;;;;;;;3.38;0.93;;;;;;;;;;5021509;28;20040;-74
2021/11/29 09:01:26;;;;;;;5.80;1.20;;;;;;;;;;5020372;28;20072;-74
2021/11/29 09:03:52;;;;;;;8.25;1.50;;;;;;;;;;5025459;28;20025;-72
2021/11/29 09:06:19;;;;;;;5.75;1.27;;;;;;;;;;5027517;28;20094;-72
2021/11/29 09:08:45;;;;;;;6.13;1.40;;;;;;;;;;5022932;28;20049;-73
2021/11/29 09:11:11;;;;;;;7.93;1.02;;;;;;;;;;5025915;28;20029;-73
2021/11/29 09:13:38;;;;;;;7.88;1.60;;;;;;;;;;5020899;28;20026;-73
2021/11/29 09:16:05;;;;;;;4.10;1.38;;;;;;;;;;5031299;28;20609;-73
2021/11/29 09:18:32;;;;;;;8.73;1.10;;;;;;;;;;5021262;28;20021;-72
2021/11/29 09:20:59;;;;;;;4.97;1.25;;;;;;;;;;5028230;28;20045;-73
2021/11/29 09:23:25;;;;;;;3.08;1.23;;;;;;;;;;5024439;28;20025;-74
2021/11/29 09:25:51;;;;;;;6.40;1.42;;;;;;;;;;5024885;28;20033;-74
2021/11/29 09:28:19;;;;;;;7.43;1.33;;;;;;;;;;5023280;28;20468;-75
2021/11/29 09:30:46;;;;;;;6.90;1.42;;;;;;;;;;5021536;28;20107;-75
2021/11/29 09:33:12;;;;;;;3.45;0.80;;;;;;;;;;5024614;28;20060;-72
2021/11/29 09:35:38;;;;;;;5.40;1.05;;;;;;;;;;5018657;28;20041;-75
2021/11/29 09:38:05;;;;;;;2.78;1.17;;;;;;;;;;5020539;28;20350;-76
2021/11/29 09:40:34;;;;;;;3.47;1.02;;;;;;;;;;5024468;28;20239;-76
2021/11/29 09:43:01;;;;;;;3.22;0.80;;;;;;;;;;5028081;28;20078;-76
2021/11/29 09:45:28;;;;;;;4.38;1.13;;;;;;;;;;5029803;28;20455;-76
2021/11/29 09:47:55;;;;;;;5.15;1.08;;;;;;;;;;5023008;28;20088;-73
2021/11/29 09:50:22;;;;;;;2.60;0.60;;;;;;;;;;5021050;28;20108;-75
2021/11/29 09:52:48;;;;;;;2.25;0.68;;;;;;;;;;5023353;28;20112;-75
2021/11/29 09:55:16;;;;;;;2.13;0.60;;;;;;;;;;5023946;28;20025;-75
2021/11/29 09:57:43;;;;;;;2.67;0.80;;;;;;;;;;5025151;28;20063;-74
2021/11/29 10:00:11;;;;;;;7.82;1.13;;;;;;;;;;5022555;28;20067;-73
2021/11/29 10:02:37;;;;;;;4.15;0.77;;;;;;;;;;5022670;28;20109;-75
2021/11/29 10:05:03;;;;;;;4.60;0.95;;;;;;;;;;5019779;28;20021;-74
2021/11/29 10:07:34;;;;;;;4.63;0.88;;;;;;;;;;5020459;28;20037;-78
2021/11/29 10:10:12;;;;;;;7.57;1.08;;;;;;;;;;5023178;28;20417;-76
2021/11/29 10:12:38;;;;;;;3.35;0.77;;;;;;;;;;5021310;28;20018;-76
2021/11/29 10:15:22;;;;;;;2.40;0.80;;;;;;;;;;5022816;28;20017;-72
2021/11/29 10:17:54;;;;;;;11.35;1.17;;;;;;;;;;5018847;28;20489;-76
2021/11/29 10:20:20;;;;;;;5.18;1.27;;;;;;;;;;5026981;28;20424;-75
2021/11/29 10:23:04;;;;;;;3.00;0.50;;;;;;;;;;5021141;28;20022;-75
2021/11/29 10:25:30;;;;;;;2.58;0.73;;;;;;;;;;5021563;28;20068;-76
2021/11/29 10:27:57;;;;;;;3.50;0.85;;;;;;;;;;5030279;28;20102;-75
2021/11/29 10:30:25;;;;;;;2.40;0.70;;;;;;;;;;5028026;28;20536;-73
2021/11/29 10:32:52;;;;;;;3.42;0.85;;;;;;;;;;5025347;28;20026;-78
2021/11/29 10:35:23;;;;;;;4.55;1.00;;;;;;;;;;5027018;28;20595;-76
2021/11/29 10:37:51;;;;;;;3.25;1.08;;;;;;;;;;5023128;28;20378;-75
2021/11/29 10:40:19;;;;;;;4.95;0.70;;;;;;;;;;5031832;28;20128;-74
2021/11/29 10:42:46;;;;;;;4.43;0.77;;;;;;;;;;5027945;28;20502;-75
2021/11/29 10:45:20;;;;;;;2.15;0.90;;;;;;;;;;5024336;28;20030;-74
2021/11/29 10:47:48;;;;;;;4.85;1.20;;;;;;;;;;5024484;28;20025;-77
2021/11/29 10:50:15;;;;;;;6.55;1.10;;;;;;;;;;5027409;28;20119;-79
2021/11/29 10:52:44;;;;;;;2.38;0.73;;;;;;;;;;5025002;28;20041;-78
2021/11/29 10:55:11;;;;;;;4.95;0.73;;;;;;;;;;5027870;28;20065;-77
2021/11/29 10:57:45;;;;;;;3.33;0.60;;;;;;;;;;5027195;28;20028;-79
2021/11/29 11:00:14;;;;;;;2.63;0.75;;;;;;;;;;5024734;28;20025;-76
2021/11/29 11:02:44;;;;;;;1.95;0.70;;;;;;;;;;5026907;28;20104;-76
2021/11/29 11:05:12;;;;;;;3.50;0.50;;;;;;;;;;5028318;28;20106;-76
2021/11/29 11:07:39;;;;;;;3.30;0.80;;;;;;;;;;5027262;28;20047;-77
2021/11/29 11:10:13;;;;;;;2.15;0.90;;;;;;;;;;5022468;28;20036;-77
2021/11/29 11:12:39;;;;;;;2.47;0.60;;;;;;;;;;5026958;28;20110;-78
2021/11/29 11:15:10;;;;;;;3.85;0.70;;;;;;;;;;5032994;28;20386;-76
2021/11/29 11:17:36;;;;;;;3.20;0.75;;;;;;;;;;5025652;28;20470;-77
2021/11/29 11:20:02;;;;;;;5.40;0.73;;;;;;;;;;5028354;28;20293;-75
2021/11/29 11:22:33;;;;;;;2.53;0.95;;;;;;;;;;5024366;28;20048;-78
2021/11/29 11:25:07;;;;;;;3.13;0.85;;;;;;;;;;5025269;28;20025;-78
2021/11/29 11:27:34;;;;;;;2.35;0.70;;;;;;;;;;5023818;28;20090;-76
2021/11/29 11:30:04;;;;;;;3.33;1.17;;;;;;;;;;5026768;28;20065;-76
2021/11/29 11:32:30;;;;;;;1.13;0.70;;;;;;;;;;5023230;28;20029;-72
2021/11/29 11:35:01;;;;;;;3.08;0.80;;;;;;;;;;5023345;28;20874;-72
2021/11/29 11:37:30;;;;;;;3.22;0.77;;;;;;;;;;5025155;28;20033;-74
2021/11/29 11:39:57;;;;;;;4.22;0.80;;;;;;;;;;5026909;28;20116;-76
2021/11/29 11:42:24;;;;;;;3.53;1.70;;;;;;;;;;5026327;28;20029;-77
2021/11/29 11:44:51;;;;;;;2.20;0.57;;;;;;;;;;5021131;28;20033;-73
2021/11/29 11:47:18;;;;;;;3.60;0.77;;;;;;;;;;5025283;28;20029;-76
2021/11/29 11:49:47;;;;;;;0.68;0.35;;;;;;;;;;5022695;28;20527;-76
2021/11/29 11:52:22;;;;;;;2.15;0.60;;;;;;;;;;5023469;28;20036;-73
2021/11/29 11:54:49;;;;;;;3.40;0.38;;;;;;;;;;5021378;28;20018;-74
2021/11/29 11:57:19;;;;;;;2.75;0.50;;;;;;;;;;5022358;28;20064;-74
2021/11/29 12:00:04;;;;;;;4.18;0.63;;;;;;;;;;5025098;28;20044;-77
2021/11/29 12:02:46;;;;;;;2.47;0.60;;;;;;;;;;5027006;28;20083;-76
2021/11/29 12:05:25;;;;;;;1.42;0.30;;;;;;;;;;5022786;28;20029;-76
2021/11/29 12:07:52;;;;;;;2.88;0.40;;;;;;;;;;5026490;28;20641;-76
2021/11/29 12:10:37;;;;;;;2.50;0.50;;;;;;;;;;5022420;28;20109;-77
2021/11/29 12:13:08;;;;;;;4.97;0.60;;;;;;;;;;5028951;28;20025;-73
2021/11/29 12:15:40;;;;;;;2.80;0.57;;;;;;;;;;5020544;28;20097;-75
2021/11/29 12:18:07;;;;;;;1.17;0.47;;;;;;;;;;5024442;28;20029;-76
2021/11/29 12:20:33;;;;;;;1.75;1.10;;;;;;;;;;5022919;28;20041;-76
2021/11/29 12:22:59;;;;;;;1.92;0.60;;;;;;;;;;5026790;28;20104;-76
2021/11/29 12:25:26;;;;;;;2.88;1.17;;;;;;;;;;5025062;28;20029;-76
2021/11/29 12:27:55;;;;;;;2.15;0.63;;;;;;;;;;5020367;28;20117;-75
2021/11/29 12:30:36;;;;;;;2.42;0.52;;;;;;;;;;5022173;28;20033;-76
2021/11/29 12:33:03;;;;;;;3.10;0.60;;;;;;;;;;5033096;28;20021;-77
2021/11/29 12:35:38;;;;;;;2.80;0.90;;;;;;;;;;5021235;28;20030;-73
2021/11/29 12:38:06;;;;;;;3.90;0.47;;;;;;;;;;5023091;28;21507;-76
2021/11/29 12:41:07;;;;;;;3.25;0.70;;;;;;;;;;5025113;28;20037;-73
2021/11/29 12:43:38;;;;;;;0.75;0.40;;;;;;;;;;5025099;28;20040;-74
2021/11/29 12:46:16;;;;;;;1.85;0.50;;;;;;;;;;5024712;28;20329;-77
2021/11/29 12:48:42;;;;;;;4.65;0.60;;;;;;;;;;5024925;28;20083;-77
2021/11/29 12:51:09;;;;;;;3.30;0.60;;;;;;;;;;5018990;28;20029;-74
2021/11/29 12:53:41;;;;;;;0.95;0.40;;;;;;;;;;5024384;28;20021;-76
2021/11/29 12:56:15;;;;;;;1.48;0.50;;;;;;;;;;5024081;28;20029;-74
2021/11/29 12:58:52;;;;;;;1.02;0.50;;;;;;;;;;5022013;28;20413;-73
2021/11/29 13:01:18;;;;;;;3.20;0.47;;;;;;;;;;5025509;28;20049;-74
2021/11/29 13:03:52;;;;;;;2.45;0.65;;;;;;;;;;5024857;28;20581;-77
2021/11/29 13:06:21;;;;;;;1.13;0.50;;;;;;;;;;5021576;28;20029;-74
2021/11/29 13:08:48;;;;;;;1.08;0.50;;;;;;;;;;5019619;28;20142;-74
2021/11/29 13:11:15;;;;;;;1.70;0.50;;;;;;;;;;5022917;28;20053;-74
2021/11/29 13:13:46;;;;;;;4.45;1.20;;;;;;;;;;5025036;28;20030;-74
2021/11/29 13:16:14;;;;;;;3.00;0.75;;;;;;;;;;5026389;28;20116;-73
2021/11/29 13:18:51;;;;;;;0.88;0.40;;;;;;;;;;5019923;28;20378;-74
2021/11/29 13:21:23;;;;;;;1.30;0.50;;;;;;;;;;5022987;28;20049;-73
2021/11/29 13:23:54;;;;;;;3.33;0.60;;;;;;;;;;5021548;28;20374;-76
2021/11/29 13:26:21;;;;;;;2.03;0.30;;;;;;;;;;5022611;28;20100;-75
2021/11/29 13:28:48;;;;;;;1.30;0.60;;;;;;;;;;5023928;28;20095;-74
2021/11/29 13:31:14;;;;;;;1.50;0.68;;;;;;;;;;5020267;28;20029;-72
2021/11/29 13:33:41;;;;;;;0.93;0.45;;;;;;;;;;5023113;28;20069;-73
2021/11/29 13:36:09;;;;;;;0.57;0.30;;;;;;;;;;5023571;28;20041;-73
2021/11/29 13:38:38;;;;;;;0.68;0.20;;;;;;;;;;5028199;28;20105;-79
2021/11/29 13:41:18;;;;;;;1.73;0.40;;;;;;;;;;5042481;28;20041;-79
2021/11/29 13:43:44;;;;;;;1.00;0.40;;;;;;;;;;5037838;28;20497;-77
2021/11/29 13:46:15;;;;;;;1.30;0.40;;;;;;;;;;5024521;28;20018;-75
2021/11/29 13:48:41;;;;;;;2.35;0.40;;;;;;;;;;5026687;28;20101;-71
2021/11/29 13:51:08;;;;;;;0.95;0.32;;;;;;;;;;5025740;28;20108;-76
2021/11/29 13:53:39;;;;;;;0.30;0.20;;;;;;;;;;5027788;28;20029;-76
2021/11/29 13:56:05;;;;;;;1.25;0.40;;;;;;;;;;5024166;28;20029;-75
2021/11/29 13:58:33;;;;;;;1.02;0.30;;;;;;;;;;5023648;28;20013;-76
2021/11/29 14:01:05;;;;;;;0.70;0.30;;;;;;;;;;5023584;28;20767;-76
2021/11/29 14:03:36;;;;;;;1.98;0.75;;;;;;;;;;5032120;28;20021;-75
2021/11/29 14:06:07;;;;;;;0.70;0.30;;;;;;;;;;5025948;28;20146;-75
2021/11/29 14:08:35;;;;;;;1.77;0.40;;;;;;;;;;5024811;28;20656;-75
2021/11/29 14:11:06;;;;;;;0.52;0.47;;;;;;;;;;5025535;28;20105;-76
2021/11/29 14:13:42;;;;;;;1.85;0.50;;;;;;;;;;5025252;28;20052;-75
2021/11/29 14:16:10;;;;;;;1.80;0.50;;;;;;;;;;5026162;28;20029;-75
2021/11/29 14:18:49;;;;;;;0.82;0.50;;;;;;;;;;5025216;28;20021;-77
2021/11/29 14:21:16;;;;;;;2.33;0.55;;;;;;;;;;5025831;28;20076;-76
2021/11/29 14:23:43;;;;;;;0.40;0.30;;;;;;;;;;5024483;28;20033;-76
2021/11/29 14:26:10;;;;;;;0.65;0.38;;;;;;;;;;5025618;28;20517;-76
2021/11/29 14:28:36;;;;;;;1.00;0.40;;;;;;;;;;5024434;28;20041;-76
2021/11/29 14:31:03;;;;;;;0.85;0.40;;;;;;;;;;5025593;28;20033;-74
2021/11/29 14:33:33;;;;;;;1.25;0.40;;;;;;;;;;5022140;28;20074;-75
2021/11/29 14:35:59;;;;;;;1.60;0.30;;;;;;;;;;5032881;28;20017;-74
2021/11/29 14:38:25;;;;;;;0.45;0.30;;;;;;;;;;5026711;28;20028;-74
2021/11/29 14:41:00;;;;;;;2.55;0.90;;;;;;;;;;5027125;28;20388;-77
2021/11/29 14:43:29;;;;;;;3.53;0.60;;;;;;;;;;5030584;28;20033;-75
2021/11/29 14:45:56;;;;;;;1.33;0.40;;;;;;;;;;5028983;28;20030;-76